Time;durP1;ratioP1;P1;durP2;ratioP2;P2;SDS_P1;SDS_P2;PMS_P1;PMS_P2;Temp;Humidity;BMP_temperature;BMP_pressure;BME280_temperature;BME280_humidity;BME280_pressure;Samples;Min_cycle;Max_cycle;Signal;HPM_P1;HPM_P2
2021/12/28 00:01:06;;;;;;;9.50;5.10;;;;;;;;;;5117498;27;20019;-45
2021/12/28 00:03:32;;;;;;;4.25;1.63;;;;;;;;;;5110760;27;20011;-46
2021/12/28 00:05:58;;;;;;;8.98;3.20;;;;;;;;;;5113270;27;20068;-48
2021/12/28 00:08:24;;;;;;;17.17;2.60;;;;;;;;;;5113279;28;20080;-45
2021/12/28 00:10:49;;;;;;;11.90;2.45;;;;;;;;;;5111622;28;20020;-44
2021/12/28 00:13:16;;;;;;;10.77;3.75;;;;;;;;;;5114568;28;20039;-45
2021/12/28 00:18:22;;;;;;;9.53;4.07;;;;;;;;;;5112577;28;20584;-44
2021/12/28 00:20:49;;;;;;;6.47;3.88;;;;;;;;;;5112574;27;20074;-45
2021/12/28 00:23:17;;;;;;;9.93;4.78;;;;;;;;;;5117132;28;20078;-44
2021/12/28 00:25:43;;;;;;;13.32;3.08;;;;;;;;;;5112706;28;20114;-45
2021/12/28 00:28:09;;;;;;;10.02;4.38;;;;;;;;;;5110531;28;20047;-48
2021/12/28 00:30:34;;;;;;;16.02;2.35;;;;;;;;;;5112144;28;20468;-47
2021/12/28 00:33:00;;;;;;;3.97;2.72;;;;;;;;;;5112977;28;20552;-43
2021/12/28 00:35:30;;;;;;;4.03;2.20;;;;;;;;;;5112891;28;20491;-43
2021/12/28 00:37:55;;;;;;;11.95;2.78;;;;;;;;;;5111321;28;20023;-47
2021/12/28 00:40:21;;;;;;;4.25;2.10;;;;;;;;;;5111144;28;20585;-44
2021/12/28 00:42:47;;;;;;;18.00;2.95;;;;;;;;;;5115562;28;20176;-48
2021/12/28 00:45:13;;;;;;;10.30;3.70;;;;;;;;;;5113890;28;20054;-46
2021/12/28 00:47:38;;;;;;;3.42;1.48;;;;;;;;;;5114597;28;20052;-48
2021/12/28 00:50:04;;;;;;;8.52;2.97;;;;;;;;;;5111431;28;20758;-45
2021/12/28 00:52:29;;;;;;;9.52;1.90;;;;;;;;;;5110166;28;20400;-45
2021/12/28 00:54:55;;;;;;;7.85;2.83;;;;;;;;;;5116973;28;20112;-46
2021/12/28 00:57:20;;;;;;;4.95;1.30;;;;;;;;;;5110807;28;20064;-43
2021/12/28 00:59:45;;;;;;;5.93;1.52;;;;;;;;;;5117154;27;20037;-48
2021/12/28 01:02:11;;;;;;;8.27;2.20;;;;;;;;;;5121655;27;20019;-47
2021/12/28 01:04:36;;;;;;;7.28;1.85;;;;;;;;;;5119208;27;20416;-47
2021/12/28 01:07:02;;;;;;;17.10;3.30;;;;;;;;;;5112702;27;20401;-48
2021/12/28 01:09:31;;;;;;;7.90;1.83;;;;;;;;;;5117544;27;20012;-45
2021/12/28 01:11:57;;;;;;;8.50;2.05;;;;;;;;;;5119162;27;20475;-47
2021/12/28 01:14:23;;;;;;;4.78;2.17;;;;;;;;;;5117741;27;20011;-50
2021/12/28 01:16:48;;;;;;;11.30;4.63;;;;;;;;;;5116965;27;20456;-46
2021/12/28 01:19:13;;;;;;;16.05;2.17;;;;;;;;;;5119487;27;20412;-46
2021/12/28 01:21:39;;;;;;;28.73;2.95;;;;;;;;;;5115849;27;20054;-50
2021/12/28 01:24:04;;;;;;;7.50;1.88;;;;;;;;;;5114461;27;20066;-48
2021/12/28 01:26:30;;;;;;;5.22;2.08;;;;;;;;;;5117902;27;20547;-47
2021/12/28 01:28:55;;;;;;;11.45;3.45;;;;;;;;;;5113430;27;20081;-45
2021/12/28 01:31:20;;;;;;;14.02;5.07;;;;;;;;;;5116484;27;20047;-48
2021/12/28 01:33:46;;;;;;;12.85;4.72;;;;;;;;;;5113351;27;20030;-46
2021/12/28 01:36:11;;;;;;;14.38;4.88;;;;;;;;;;5113062;27;20024;-44
2021/12/28 01:38:37;;;;;;;12.02;4.60;;;;;;;;;;5115860;27;20023;-47
2021/12/28 01:41:02;;;;;;;12.90;4.55;;;;;;;;;;5114484;27;20076;-48
2021/12/28 01:43:28;;;;;;;23.70;5.07;;;;;;;;;;5111399;27;20032;-45
2021/12/28 01:46:01;;;;;;;12.48;4.05;;;;;;;;;;5116395;27;20472;-47
2021/12/28 01:48:26;;;;;;;12.25;4.95;;;;;;;;;;5117609;27;20106;-44
2021/12/28 01:50:53;;;;;;;31.77;6.03;;;;;;;;;;5115683;27;20026;-45
2021/12/28 01:53:19;;;;;;;4.68;2.38;;;;;;;;;;5113345;27;20023;-45
2021/12/28 01:55:46;;;;;;;6.30;4.53;;;;;;;;;;5117596;27;20024;-45
2021/12/28 01:58:11;;;;;;;13.35;4.43;;;;;;;;;;5116476;27;20035;-43
2021/12/28 02:00:37;;;;;;;9.23;3.60;;;;;;;;;;5115675;27;20028;-46
2021/12/28 02:03:06;;;;;;;16.67;5.60;;;;;;;;;;5112925;27;20023;-44
2021/12/28 02:05:32;;;;;;;24.42;3.58;;;;;;;;;;5114304;27;20062;-47
2021/12/28 02:07:57;;;;;;;13.68;2.85;;;;;;;;;;5118230;27;20051;-45
2021/12/28 02:10:22;;;;;;;20.10;4.45;;;;;;;;;;5117505;27;20054;-48
2021/12/28 02:12:48;;;;;;;5.28;1.85;;;;;;;;;;5114519;27;20015;-43
2021/12/28 02:15:15;;;;;;;10.52;1.83;;;;;;;;;;5115063;27;20023;-43
2021/12/28 02:17:41;;;;;;;6.45;3.40;;;;;;;;;;5113236;27;20037;-47
2021/12/28 02:20:08;;;;;;;15.85;3.28;;;;;;;;;;5117830;27;20023;-46
2021/12/28 02:22:33;;;;;;;7.47;3.28;;;;;;;;;;5112848;27;20055;-48
2021/12/28 02:24:59;;;;;;;12.45;3.30;;;;;;;;;;5114288;27;20024;-47
2021/12/28 02:27:26;;;;;;;14.20;5.65;;;;;;;;;;5115605;27;20092;-46
2021/12/28 02:29:52;;;;;;;9.85;3.63;;;;;;;;;;5117713;27;20031;-48
2021/12/28 02:32:17;;;;;;;11.70;4.78;;;;;;;;;;5116224;27;20041;-47
2021/12/28 02:34:45;;;;;;;10.13;2.85;;;;;;;;;;5114916;27;20012;-46
2021/12/28 02:37:10;;;;;;;10.02;4.22;;;;;;;;;;5116220;27;20055;-45
2021/12/28 02:39:35;;;;;;;14.02;4.28;;;;;;;;;;5113360;27;20059;-46
2021/12/28 02:42:01;;;;;;;5.68;3.42;;;;;;;;;;5116005;27;20025;-46
2021/12/28 02:44:26;;;;;;;22.48;5.72;;;;;;;;;;5116789;27;20525;-47
2021/12/28 02:46:51;;;;;;;17.83;7.25;;;;;;;;;;5115102;27;20438;-47
2021/12/28 02:49:16;;;;;;;11.90;5.20;;;;;;;;;;5117443;27;20454;-43
2021/12/28 02:51:42;;;;;;;7.05;3.05;;;;;;;;;;5115045;27;20107;-46
2021/12/28 02:54:07;;;;;;;10.35;5.28;;;;;;;;;;5097844;27;20472;-43
2021/12/28 02:56:32;;;;;;;12.52;4.38;;;;;;;;;;5113266;27;20030;-45
2021/12/28 02:59:00;;;;;;;12.68;4.65;;;;;;;;;;5115588;27;20050;-45
2021/12/28 03:01:28;;;;;;;16.02;4.65;;;;;;;;;;5115699;27;20808;-46
2021/12/28 03:03:58;;;;;;;14.02;2.78;;;;;;;;;;5112779;27;20020;-46
2021/12/28 03:06:24;;;;;;;19.45;5.07;;;;;;;;;;5116396;27;20027;-45
2021/12/28 03:08:53;;;;;;;10.85;3.42;;;;;;;;;;5114639;27;20030;-46
2021/12/28 03:11:19;;;;;;;21.55;4.90;;;;;;;;;;5114746;27;20472;-45
2021/12/28 03:13:49;;;;;;;13.75;5.25;;;;;;;;;;5114202;27;20034;-45
2021/12/28 03:16:15;;;;;;;16.42;4.32;;;;;;;;;;5112993;27;20491;-47
2021/12/28 03:18:41;;;;;;;11.57;4.97;;;;;;;;;;5116185;27;20064;-48
2021/12/28 03:21:07;;;;;;;34.08;5.07;;;;;;;;;;5117776;27;20046;-45
2021/12/28 03:23:33;;;;;;;17.83;5.70;;;;;;;;;;5115056;27;20486;-48
2021/12/28 03:25:58;;;;;;;8.50;4.57;;;;;;;;;;5116443;27;20023;-46
2021/12/28 03:28:26;;;;;;;12.05;4.63;;;;;;;;;;5112775;27;20587;-47
2021/12/28 03:30:52;;;;;;;21.77;6.07;;;;;;;;;;5114469;27;20031;-44
2021/12/28 03:33:19;;;;;;;16.95;3.72;;;;;;;;;;5113502;27;20110;-44
2021/12/28 03:35:45;;;;;;;17.65;4.28;;;;;;;;;;5109901;27;20030;-45
2021/12/28 03:38:10;;;;;;;9.43;3.92;;;;;;;;;;5118377;27;20395;-43
2021/12/28 03:40:35;;;;;;;21.73;5.78;;;;;;;;;;5116375;27;20020;-44
2021/12/28 03:43:01;;;;;;;11.60;4.57;;;;;;;;;;5117154;27;20019;-47
2021/12/28 03:45:26;;;;;;;10.93;4.70;;;;;;;;;;5115405;27;20016;-48
2021/12/28 03:47:51;;;;;;;20.38;5.97;;;;;;;;;;5115487;27;20384;-46
2021/12/28 03:50:22;;;;;;;11.90;5.85;;;;;;;;;;5112775;27;20030;-44
2021/12/28 03:52:47;;;;;;;13.93;6.85;;;;;;;;;;5111369;27;20057;-43
2021/12/28 03:55:13;;;;;;;10.75;6.05;;;;;;;;;;5112846;27;20055;-43
2021/12/28 03:57:39;;;;;;;20.23;6.15;;;;;;;;;;5118121;27;20053;-44
2021/12/28 04:00:06;;;;;;;7.43;2.95;;;;;;;;;;5114916;27;20105;-43
2021/12/28 04:02:32;;;;;;;11.57;3.08;;;;;;;;;;5110724;27;20026;-44
2021/12/28 04:04:57;;;;;;;9.65;3.05;;;;;;;;;;5115676;27;20023;-43
2021/12/28 04:07:22;;;;;;;7.05;2.42;;;;;;;;;;5112918;27;20031;-42
2021/12/28 04:12:17;;;;;;;15.93;4.60;;;;;;;;;;5113194;28;20026;-44
2021/12/28 04:14:42;;;;;;;16.33;5.97;;;;;;;;;;5114977;28;20478;-44
2021/12/28 04:17:07;;;;;;;11.57;3.13;;;;;;;;;;5110415;28;20020;-44
2021/12/28 04:19:33;;;;;;;13.95;3.53;;;;;;;;;;5115951;28;20477;-46
2021/12/28 04:21:58;;;;;;;15.40;5.70;;;;;;;;;;5111997;28;20539;-43
2021/12/28 04:24:23;;;;;;;6.13;2.65;;;;;;;;;;5118177;28;20464;-43
2021/12/28 04:26:49;;;;;;;8.07;2.85;;;;;;;;;;5114899;28;20023;-43
2021/12/28 04:29:14;;;;;;;9.80;3.17;;;;;;;;;;5113258;28;20225;-45
2021/12/28 04:31:39;;;;;;;10.63;3.97;;;;;;;;;;5110940;28;20028;-48
2021/12/28 04:34:05;;;;;;;5.10;2.08;;;;;;;;;;5110801;28;20477;-46
2021/12/28 04:36:30;;;;;;;13.90;3.05;;;;;;;;;;5117099;27;20030;-45
2021/12/28 04:38:55;;;;;;;14.43;5.18;;;;;;;;;;5118411;27;20034;-44
2021/12/28 04:41:21;;;;;;;10.70;4.40;;;;;;;;;;5120806;27;20696;-45
2021/12/28 04:43:48;;;;;;;19.85;5.80;;;;;;;;;;5120714;27;20474;-47
2021/12/28 04:46:13;;;;;;;37.92;6.38;;;;;;;;;;5098250;27;20106;-45
2021/12/28 04:48:38;;;;;;;9.65;2.47;;;;;;;;;;5115182;27;20110;-44
2021/12/28 04:51:04;;;;;;;10.05;3.95;;;;;;;;;;5121363;27;20424;-44
2021/12/28 04:53:29;;;;;;;7.38;2.60;;;;;;;;;;5118570;27;20479;-49
2021/12/28 04:55:55;;;;;;;16.50;5.65;;;;;;;;;;5118923;27;20019;-44
2021/12/28 04:58:20;;;;;;;5.78;1.50;;;;;;;;;;5120690;27;20015;-45
2021/12/28 05:00:46;;;;;;;8.00;2.50;;;;;;;;;;5117943;27;20027;-47
2021/12/28 05:03:12;;;;;;;9.50;3.25;;;;;;;;;;5102969;27;20042;-46
2021/12/28 05:05:40;;;;;;;12.45;2.72;;;;;;;;;;5119580;27;20530;-44
2021/12/28 05:08:05;;;;;;;4.30;2.25;;;;;;;;;;5118265;27;20035;-45
2021/12/28 05:10:31;;;;;;;13.85;4.15;;;;;;;;;;5119275;27;20072;-43
2021/12/28 05:12:56;;;;;;;22.52;4.55;;;;;;;;;;5119255;27;20018;-47
2021/12/28 05:15:22;;;;;;;24.10;3.97;;;;;;;;;;5116119;27;20664;-44
2021/12/28 05:17:47;;;;;;;18.52;3.65;;;;;;;;;;5121856;27;20018;-44
2021/12/28 05:20:13;;;;;;;11.27;4.05;;;;;;;;;;5120807;27;20106;-44
2021/12/28 05:22:38;;;;;;;9.18;2.92;;;;;;;;;;5120952;27;20126;-49
2021/12/28 05:25:04;;;;;;;9.55;3.95;;;;;;;;;;5123006;27;20019;-46
2021/12/28 05:27:30;;;;;;;15.15;4.03;;;;;;;;;;5118287;27;20023;-44
2021/12/28 05:29:55;;;;;;;5.72;2.58;;;;;;;;;;5117868;27;20023;-44
2021/12/28 05:32:20;;;;;;;20.08;3.03;;;;;;;;;;5116991;27;20023;-47
2021/12/28 05:34:46;;;;;;;14.95;2.67;;;;;;;;;;5116126;27;20467;-43
2021/12/28 05:37:11;;;;;;;12.02;3.30;;;;;;;;;;5120018;27;20054;-42
2021/12/28 05:39:37;;;;;;;18.90;5.00;;;;;;;;;;5116972;27;20110;-46
2021/12/28 05:42:03;;;;;;;6.20;3.90;;;;;;;;;;5119758;27;20449;-41
2021/12/28 05:44:28;;;;;;;9.20;4.50;;;;;;;;;;5119485;27;20030;-43
2021/12/28 05:46:54;;;;;;;13.60;4.22;;;;;;;;;;5117766;27;20030;-44
2021/12/28 05:49:20;;;;;;;14.52;4.28;;;;;;;;;;5120216;27;20023;-44
2021/12/28 05:51:45;;;;;;;27.25;6.55;;;;;;;;;;5114115;27;20671;-45
2021/12/28 05:54:12;;;;;;;9.88;3.40;;;;;;;;;;5116512;27;20021;-44
2021/12/28 05:56:37;;;;;;;12.70;4.03;;;;;;;;;;5119728;27;20018;-47
2021/12/28 05:59:03;;;;;;;10.98;3.33;;;;;;;;;;5116710;27;20019;-42
2021/12/28 06:01:28;;;;;;;12.82;3.17;;;;;;;;;;5122756;27;20022;-45
2021/12/28 06:03:53;;;;;;;7.28;2.92;;;;;;;;;;5121597;27;20343;-43
2021/12/28 06:06:19;;;;;;;13.70;5.30;;;;;;;;;;5120358;27;20395;-44
2021/12/28 06:08:44;;;;;;;5.53;3.92;;;;;;;;;;5115347;27;20025;-44
2021/12/28 06:11:12;;;;;;;6.95;3.55;;;;;;;;;;5117294;27;20161;-46
2021/12/28 06:13:40;;;;;;;18.38;4.63;;;;;;;;;;5118241;27;20054;-47
2021/12/28 06:16:05;;;;;;;14.18;5.78;;;;;;;;;;5116436;27;20102;-45
2021/12/28 06:18:31;;;;;;;11.32;4.05;;;;;;;;;;5119390;27;20438;-44
2021/12/28 06:20:56;;;;;;;10.27;4.97;;;;;;;;;;5118682;27;20055;-45
2021/12/28 06:23:21;;;;;;;16.88;4.88;;;;;;;;;;5121113;27;20393;-45
2021/12/28 06:25:47;;;;;;;9.52;4.22;;;;;;;;;;5116598;27;20058;-46
2021/12/28 06:28:12;;;;;;;22.38;5.25;;;;;;;;;;5115730;27;20042;-47
2021/12/28 06:30:37;;;;;;;11.23;4.10;;;;;;;;;;5117579;27;20971;-47
2021/12/28 06:33:03;;;;;;;11.38;3.70;;;;;;;;;;5118982;27;20047;-43
2021/12/28 06:35:28;;;;;;;11.75;3.15;;;;;;;;;;5116185;27;20107;-44
2021/12/28 06:37:54;;;;;;;23.67;4.90;;;;;;;;;;5120284;27;20015;-42
2021/12/28 06:40:19;;;;;;;17.80;3.35;;;;;;;;;;5115544;27;20099;-43
2021/12/28 06:42:44;;;;;;;13.10;3.20;;;;;;;;;;5115986;27;20388;-49
2021/12/28 06:45:10;;;;;;;16.45;6.40;;;;;;;;;;5118558;27;20038;-44
2021/12/28 06:47:35;;;;;;;21.70;3.13;;;;;;;;;;5118727;27;20033;-46
2021/12/28 06:50:01;;;;;;;12.32;2.95;;;;;;;;;;5116416;27;20019;-42
2021/12/28 06:52:27;;;;;;;24.40;4.60;;;;;;;;;;5116336;27;20023;-44
2021/12/28 06:54:52;;;;;;;9.23;4.22;;;;;;;;;;5119057;27;20507;-45
2021/12/28 06:57:17;;;;;;;18.10;4.57;;;;;;;;;;5116768;27;20019;-44
2021/12/28 06:59:43;;;;;;;17.80;4.45;;;;;;;;;;5118428;27;20058;-44
2021/12/28 07:02:15;;;;;;;10.70;5.55;;;;;;;;;;5112829;27;20024;-44
2021/12/28 07:04:41;;;;;;;18.17;5.72;;;;;;;;;;5121794;27;20023;-44
2021/12/28 07:07:07;;;;;;;14.70;6.20;;;;;;;;;;5120121;27;20412;-49
2021/12/28 07:09:32;;;;;;;9.88;4.18;;;;;;;;;;5116555;27;20039;-47
2021/12/28 07:11:58;;;;;;;21.23;6.28;;;;;;;;;;5116832;27;20507;-41
2021/12/28 07:14:24;;;;;;;11.68;5.25;;;;;;;;;;5114417;27;20012;-45
2021/12/28 07:16:49;;;;;;;19.08;8.02;;;;;;;;;;5115710;27;20046;-47
2021/12/28 07:19:14;;;;;;;14.05;5.43;;;;;;;;;;5115587;27;20083;-46
2021/12/28 07:21:40;;;;;;;12.02;6.93;;;;;;;;;;5120558;27;20372;-45
2021/12/28 07:24:06;;;;;;;13.27;5.50;;;;;;;;;;5116666;27;20042;-45
2021/12/28 07:26:31;;;;;;;23.42;6.10;;;;;;;;;;5117165;27;20488;-43
2021/12/28 07:28:57;;;;;;;20.52;5.03;;;;;;;;;;5115463;27;20623;-47
2021/12/28 07:31:22;;;;;;;13.73;6.20;;;;;;;;;;5103575;27;20092;-48
2021/12/28 07:33:47;;;;;;;13.25;7.90;;;;;;;;;;5113895;27;20051;-47
2021/12/28 07:36:13;;;;;;;12.07;5.72;;;;;;;;;;5119754;27;20464;-47
2021/12/28 07:38:38;;;;;;;9.45;4.70;;;;;;;;;;5117744;27;20433;-48
2021/12/28 07:41:03;;;;;;;23.15;8.15;;;;;;;;;;5119639;27;20015;-49
2021/12/28 07:43:29;;;;;;;24.55;9.88;;;;;;;;;;5117620;27;20094;-47
2021/12/28 07:45:54;;;;;;;25.25;6.60;;;;;;;;;;5113786;27;20133;-46
2021/12/28 07:48:20;;;;;;;30.83;7.70;;;;;;;;;;5116772;27;20130;-46
2021/12/28 07:50:45;;;;;;;22.02;5.40;;;;;;;;;;5117025;27;20031;-44
2021/12/28 07:53:10;;;;;;;23.17;8.35;;;;;;;;;;5114510;27;20011;-45
2021/12/28 07:55:36;;;;;;;10.27;4.72;;;;;;;;;;5115177;27;20072;-43
2021/12/28 07:58:01;;;;;;;17.55;5.60;;;;;;;;;;5117696;27;20076;-46
2021/12/28 08:00:28;;;;;;;32.00;8.65;;;;;;;;;;5117175;27;20104;-44
2021/12/28 08:02:54;;;;;;;25.10;6.38;;;;;;;;;;5116274;27;20080;-45
2021/12/28 08:05:19;;;;;;;33.72;11.15;;;;;;;;;;5118980;27;20031;-42
2021/12/28 08:07:45;;;;;;;29.92;9.35;;;;;;;;;;5116968;27;20055;-42
2021/12/28 08:10:11;;;;;;;18.63;7.93;;;;;;;;;;5120619;27;20072;-45
2021/12/28 08:12:36;;;;;;;23.10;7.97;;;;;;;;;;5114873;28;20016;-46
2021/12/28 08:15:03;;;;;;;20.10;10.82;;;;;;;;;;5116313;28;20015;-42
2021/12/28 08:17:29;;;;;;;20.15;8.35;;;;;;;;;;5120033;28;20102;-43
2021/12/28 08:19:54;;;;;;;14.65;8.20;;;;;;;;;;5118171;28;20549;-46
2021/12/28 08:22:20;;;;;;;23.17;10.77;;;;;;;;;;5117955;28;20066;-42
2021/12/28 08:24:45;;;;;;;15.65;10.05;;;;;;;;;;5118362;28;20030;-46
2021/12/28 08:27:10;;;;;;;22.80;12.45;;;;;;;;;;5115631;28;20347;-44
2021/12/28 08:29:36;;;;;;;24.98;14.30;;;;;;;;;;5115068;28;20078;-43
2021/12/28 08:32:01;;;;;;;28.48;12.98;;;;;;;;;;5111673;28;20446;-43
2021/12/28 08:34:29;;;;;;;26.08;13.57;;;;;;;;;;5112340;28;20027;-44
2021/12/28 08:36:57;;;;;;;27.02;10.52;;;;;;;;;;5114462;28;20701;-44
2021/12/28 08:39:23;;;;;;;19.27;6.82;;;;;;;;;;5115350;28;20723;-44
2021/12/28 08:41:48;;;;;;;20.08;8.80;;;;;;;;;;5114765;28;20076;-42
2021/12/28 08:44:13;;;;;;;29.58;11.88;;;;;;;;;;5113127;28;20114;-44
2021/12/28 08:46:39;;;;;;;18.60;8.32;;;;;;;;;;5110717;28;20016;-43
2021/12/28 08:49:04;;;;;;;8.27;5.28;;;;;;;;;;5113852;28;20473;-45
2021/12/28 08:51:30;;;;;;;15.07;7.47;;;;;;;;;;5114104;28;20114;-43
2021/12/28 08:53:55;;;;;;;6.22;3.05;;;;;;;;;;5113437;28;20019;-47
2021/12/28 08:56:20;;;;;;;11.20;7.32;;;;;;;;;;5114925;28;20020;-49
2021/12/28 08:58:46;;;;;;;29.20;12.02;;;;;;;;;;5116310;28;20016;-45
2021/12/28 09:01:11;;;;;;;301.58;61.45;;;;;;;;;;5115945;28;20072;-45
2021/12/28 09:03:37;;;;;;;95.35;35.83;;;;;;;;;;5114870;28;20093;-49
2021/12/28 09:06:02;;;;;;;54.67;27.20;;;;;;;;;;5110486;28;20088;-55
2021/12/28 09:08:28;;;;;;;36.53;22.83;;;;;;;;;;5114922;28;20070;-51
2021/12/28 09:10:53;;;;;;;42.47;25.00;;;;;;;;;;5117030;28;20107;-52
2021/12/28 09:13:19;;;;;;;39.88;28.45;;;;;;;;;;5115896;28;20011;-52
2021/12/28 09:15:45;;;;;;;61.72;40.85;;;;;;;;;;5116736;28;20057;-49
2021/12/28 09:18:10;;;;;;;55.42;30.60;;;;;;;;;;5116171;28;20051;-52
2021/12/28 09:20:35;;;;;;;74.65;27.23;;;;;;;;;;5115689;27;20054;-52
2021/12/28 09:23:01;;;;;;;61.15;22.63;;;;;;;;;;5121232;27;20076;-55
2021/12/28 09:25:27;;;;;;;22.42;12.48;;;;;;;;;;5120822;27;20455;-48
2021/12/28 09:27:53;;;;;;;28.50;15.65;;;;;;;;;;5121150;27;20066;-52
2021/12/28 09:30:18;;;;;;;35.00;23.02;;;;;;;;;;5117674;27;20151;-52
2021/12/28 09:32:46;;;;;;;45.53;33.92;;;;;;;;;;5121006;27;20424;-47
2021/12/28 09:35:12;;;;;;;68.38;54.10;;;;;;;;;;5115946;27;20114;-51
2021/12/28 09:37:37;;;;;;;68.10;39.38;;;;;;;;;;5119576;27;20122;-50
2021/12/28 09:40:04;;;;;;;48.67;34.95;;;;;;;;;;5119262;27;20484;-51
2021/12/28 09:42:29;;;;;;;40.15;32.13;;;;;;;;;;5115835;27;20492;-50
2021/12/28 09:44:55;;;;;;;32.20;26.67;;;;;;;;;;5115728;27;20024;-49
2021/12/28 09:47:20;;;;;;;28.52;21.35;;;;;;;;;;5117427;27;20027;-45
2021/12/28 09:49:47;;;;;;;35.20;18.50;;;;;;;;;;5118373;27;20023;-44
2021/12/28 09:52:12;;;;;;;33.88;21.35;;;;;;;;;;5121201;27;20011;-44
2021/12/28 09:54:38;;;;;;;23.65;12.60;;;;;;;;;;5120359;27;20960;-50
2021/12/28 09:57:03;;;;;;;14.73;11.35;;;;;;;;;;5117998;27;20019;-49
2021/12/28 09:59:29;;;;;;;27.60;13.60;;;;;;;;;;5118443;27;20019;-48
2021/12/28 10:01:55;;;;;;;22.58;16.88;;;;;;;;;;5116364;27;20022;-47
2021/12/28 10:04:20;;;;;;;36.75;19.27;;;;;;;;;;5117312;27;20012;-50
2021/12/28 10:06:45;;;;;;;28.45;15.23;;;;;;;;;;5116718;27;20119;-46
2021/12/28 10:09:18;;;;;;;19.17;11.70;;;;;;;;;;5113751;27;20668;-50
2021/12/28 10:11:49;;;;;;;24.90;13.25;;;;;;;;;;5117971;27;20015;-47
2021/12/28 10:14:21;;;;;;;26.50;13.43;;;;;;;;;;5123461;27;20076;-49
2021/12/28 10:16:57;;;;;;;23.42;10.40;;;;;;;;;;5114599;27;20012;-50
2021/12/28 10:19:37;;;;;;;19.08;9.98;;;;;;;;;;5116074;27;20125;-49
2021/12/28 10:22:38;;;;;;;22.85;11.48;;;;;;;;;;5113405;27;20062;-49
2021/12/28 10:25:09;;;;;;;20.55;12.68;;;;;;;;;;5051582;28;20021;-49
2021/12/28 10:27:35;;;;;;;10.25;8.02;;;;;;;;;;5102304;27;20059;-48
2021/12/28 10:30:04;;;;;;;20.92;10.18;;;;;;;;;;5115560;27;20161;-48
2021/12/28 10:32:29;;;;;;;12.50;6.75;;;;;;;;;;5113343;27;20556;-51
2021/12/28 10:34:56;;;;;;;18.83;8.20;;;;;;;;;;5112153;27;20104;-51
2021/12/28 10:37:23;;;;;;;7.32;5.15;;;;;;;;;;5112284;27;20075;-46
2021/12/28 10:39:51;;;;;;;12.95;4.35;;;;;;;;;;5113708;27;20019;-51
2021/12/28 10:42:55;;;;;;;31.67;10.32;;;;;;;;;;5114855;27;20027;-50
2021/12/28 10:45:22;;;;;;;86.55;60.10;;;;;;;;;;5015327;28;20029;-51
2021/12/28 10:47:48;;;;;;;31.67;20.05;;;;;;;;;;5013183;28;20040;-51
2021/12/28 10:50:25;;;;;;;17.08;6.22;;;;;;;;;;5063735;27;20555;-51
2021/12/28 10:53:00;;;;;;;11.20;8.70;;;;;;;;;;5109171;27;20023;-52
2021/12/28 10:55:26;;;;;;;9.80;5.60;;;;;;;;;;5113988;27;20042;-54
2021/12/28 10:57:52;;;;;;;16.67;7.43;;;;;;;;;;5119797;27;20020;-48
2021/12/28 11:00:25;;;;;;;18.85;8.40;;;;;;;;;;5115220;27;20029;-49
2021/12/28 11:02:51;;;;;;;24.70;11.75;;;;;;;;;;5116648;27;20106;-49
2021/12/28 11:05:32;;;;;;;14.45;9.30;;;;;;;;;;5119004;27;20049;-50
2021/12/28 11:07:58;;;;;;;12.38;4.78;;;;;;;;;;5112072;27;20027;-53
2021/12/28 11:10:28;;;;;;;9.10;5.25;;;;;;;;;;5111724;27;20345;-49
2021/12/28 11:12:54;;;;;;;12.18;7.45;;;;;;;;;;5111582;27;20071;-47
2021/12/28 11:15:23;;;;;;;30.63;10.38;;;;;;;;;;5112943;27;20127;-52
2021/12/28 11:17:49;;;;;;;13.48;8.32;;;;;;;;;;5114051;27;20051;-50
2021/12/28 11:20:14;;;;;;;16.67;10.77;;;;;;;;;;5117097;27;20108;-51
2021/12/28 11:22:39;;;;;;;19.38;13.30;;;;;;;;;;5114922;27;20047;-53
2021/12/28 11:25:18;;;;;;;14.93;10.40;;;;;;;;;;5112839;27;20035;-52
2021/12/28 11:27:43;;;;;;;16.42;8.02;;;;;;;;;;5111795;27;20027;-53
2021/12/28 11:30:13;;;;;;;12.18;7.15;;;;;;;;;;5113624;27;20068;-52
2021/12/28 11:32:38;;;;;;;9.40;5.68;;;;;;;;;;5117029;27;20047;-52
2021/12/28 11:35:04;;;;;;;23.02;7.85;;;;;;;;;;5117755;27;20111;-51
2021/12/28 11:37:30;;;;;;;9.77;3.58;;;;;;;;;;5116818;27;20030;-52
2021/12/28 11:39:58;;;;;;;12.45;3.97;;;;;;;;;;5113492;27;20038;-52
2021/12/28 11:42:24;;;;;;;9.77;7.10;;;;;;;;;;5113265;27;20369;-54
2021/12/28 11:44:50;;;;;;;8.25;4.28;;;;;;;;;;5111749;27;20056;-47
2021/12/28 11:47:17;;;;;;;20.50;5.57;;;;;;;;;;5111241;27;20476;-54
2021/12/28 11:49:44;;;;;;;13.95;5.95;;;;;;;;;;5112703;27;20110;-53
2021/12/28 11:52:12;;;;;;;8.80;4.63;;;;;;;;;;5114888;27;20043;-53
2021/12/28 11:54:41;;;;;;;12.60;8.10;;;;;;;;;;5113647;27;20016;-49
2021/12/28 11:57:08;;;;;;;13.18;9.88;;;;;;;;;;5111718;27;20050;-51
2021/12/28 11:59:34;;;;;;;24.52;11.23;;;;;;;;;;5112985;27;20012;-50
2021/12/28 12:01:59;;;;;;;10.60;5.53;;;;;;;;;;5114381;27;20060;-52
2021/12/28 12:04:34;;;;;;;6.20;3.53;;;;;;;;;;5116627;27;20022;-47
2021/12/28 12:07:01;;;;;;;10.43;2.38;;;;;;;;;;5117993;27;20015;-51
2021/12/28 12:09:26;;;;;;;8.20;3.10;;;;;;;;;;5108869;27;20030;-52
2021/12/28 12:12:11;;;;;;;10.70;4.70;;;;;;;;;;5114028;27;20019;-52
2021/12/28 12:14:51;;;;;;;11.98;3.85;;;;;;;;;;5113132;28;20023;-52
2021/12/28 12:17:34;;;;;;;6.97;3.67;;;;;;;;;;5116829;28;20249;-52
2021/12/28 12:20:05;;;;;;;4.07;2.67;;;;;;;;;;5113747;28;20027;-51
2021/12/28 12:22:31;;;;;;;5.72;1.95;;;;;;;;;;5112339;28;20047;-52
2021/12/28 12:25:00;;;;;;;5.38;3.00;;;;;;;;;;5111365;28;20845;-46
2021/12/28 12:27:37;;;;;;;6.20;4.10;;;;;;;;;;5115186;28;20095;-53
2021/12/28 12:30:02;;;;;;;11.60;5.75;;;;;;;;;;5112394;28;20019;-50
2021/12/28 12:32:47;;;;;;;5.45;4.15;;;;;;;;;;5113738;28;20027;-49
2021/12/28 12:35:31;;;;;;;11.18;3.95;;;;;;;;;;5114266;28;20205;-48
2021/12/28 12:37:57;;;;;;;6.65;3.85;;;;;;;;;;5113905;28;20131;-50
2021/12/28 12:40:23;;;;;;;10.32;3.05;;;;;;;;;;5113049;28;20023;-53
2021/12/28 12:43:07;;;;;;;8.13;2.40;;;;;;;;;;5115527;28;20051;-48
2021/12/28 12:45:50;;;;;;;3.42;2.58;;;;;;;;;;5110436;28;20732;-51
2021/12/28 12:48:37;;;;;;;7.10;3.10;;;;;;;;;;5111036;28;20275;-51
2021/12/28 12:53:46;;;;;;;8.50;3.83;;;;;;;;;;5111721;28;20019;-45
2021/12/28 12:56:13;;;;;;;4.72;1.35;;;;;;;;;;5111852;27;20028;-48
2021/12/28 12:58:45;;;;;;;6.20;2.75;;;;;;;;;;5115084;27;20498;-45
2021/12/28 13:01:37;;;;;;;14.85;8.38;;;;;;;;;;5115465;27;20126;-51
2021/12/28 13:04:03;;;;;;;7.57;3.22;;;;;;;;;;5078447;27;20061;-51
2021/12/28 13:06:41;;;;;;;5.60;2.53;;;;;;;;;;5119550;27;20495;-48
2021/12/28 13:09:07;;;;;;;9.27;5.63;;;;;;;;;;5120476;27;20384;-47
2021/12/28 13:11:33;;;;;;;13.35;5.80;;;;;;;;;;5117426;27;20031;-48
2021/12/28 13:13:59;;;;;;;6.80;6.07;;;;;;;;;;5119910;27;20023;-44
2021/12/28 13:16:24;;;;;;;8.95;4.10;;;;;;;;;;5117267;27;20016;-44
2021/12/28 13:18:49;;;;;;;6.95;3.60;;;;;;;;;;5113022;27;20019;-50
2021/12/28 13:21:21;;;;;;;12.48;5.40;;;;;;;;;;5113356;27;20094;-49
2021/12/28 13:24:05;;;;;;;18.23;5.85;;;;;;;;;;5111175;27;20079;-48
2021/12/28 13:26:48;;;;;;;8.65;4.53;;;;;;;;;;5115713;27;20046;-46
2021/12/28 13:29:27;;;;;;;5.63;2.97;;;;;;;;;;5117421;27;20122;-52
2021/12/28 13:31:53;;;;;;;8.10;3.35;;;;;;;;;;5114798;27;20020;-54
2021/12/28 13:34:18;;;;;;;13.15;2.78;;;;;;;;;;5116635;27;20019;-50
2021/12/28 13:36:54;;;;;;;7.22;2.47;;;;;;;;;;5117751;27;20015;-50
2021/12/28 13:39:19;;;;;;;8.38;4.15;;;;;;;;;;5117116;27;20023;-51
2021/12/28 13:41:51;;;;;;;17.48;5.13;;;;;;;;;;5119336;27;20020;-49
2021/12/28 13:44:16;;;;;;;7.82;3.92;;;;;;;;;;5117452;27;20015;-51
2021/12/28 13:46:42;;;;;;;11.10;2.92;;;;;;;;;;5116659;27;20034;-52
2021/12/28 13:49:07;;;;;;;7.00;1.73;;;;;;;;;;5118494;27;20080;-51
2021/12/28 13:51:32;;;;;;;6.43;1.67;;;;;;;;;;5123733;27;20030;-54
2021/12/28 13:53:59;;;;;;;7.07;3.05;;;;;;;;;;5129108;27;20543;-54
2021/12/28 13:56:36;;;;;;;4.95;2.10;;;;;;;;;;5125043;27;20021;-50
2021/12/28 13:59:14;;;;;;;8.52;2.45;;;;;;;;;;5121598;27;20015;-51
2021/12/28 14:01:44;;;;;;;8.70;3.58;;;;;;;;;;5124587;27;20031;-52
2021/12/28 14:04:16;;;;;;;7.75;3.33;;;;;;;;;;5127068;27;20102;-53
2021/12/28 14:06:42;;;;;;;9.90;4.05;;;;;;;;;;5123823;27;20026;-53
2021/12/28 14:09:09;;;;;;;8.60;3.97;;;;;;;;;;5116004;27;20657;-51
2021/12/28 14:11:45;;;;;;;12.70;9.60;;;;;;;;;;5124103;27;20015;-50
2021/12/28 14:14:13;;;;;;;9.68;5.53;;;;;;;;;;5124507;27;20027;-51
2021/12/28 14:16:51;;;;;;;8.75;3.78;;;;;;;;;;5120969;27;20304;-49
2021/12/28 14:19:16;;;;;;;12.52;3.45;;;;;;;;;;5118033;27;20027;-58
2021/12/28 14:21:44;;;;;;;7.78;4.15;;;;;;;;;;5119917;27;20093;-57
2021/12/28 14:24:10;;;;;;;5.38;3.80;;;;;;;;;;5115075;27;20094;-57
2021/12/28 14:26:39;;;;;;;4.65;2.72;;;;;;;;;;5121779;27;20114;-56
2021/12/28 14:29:09;;;;;;;15.63;5.28;;;;;;;;;;5124479;27;20014;-56
2021/12/28 14:31:41;;;;;;;11.90;7.68;;;;;;;;;;5129478;27;20026;-56
2021/12/28 14:34:07;;;;;;;14.15;4.53;;;;;;;;;;5121806;27;20022;-58
2021/12/28 14:36:34;;;;;;;36.40;16.77;;;;;;;;;;5120812;27;20016;-57
2021/12/28 14:39:08;;;;;;;10.55;4.65;;;;;;;;;;5124261;27;20070;-60